Time;durP1;ratioP1;P1;durP2;ratioP2;P2;SDS_P1;SDS_P2;PMS_P1;PMS_P2;Temp;Humidity;BMP_temperature;BMP_pressure;BME280_temperature;BME280_humidity;BME280_pressure;Samples;Min_cycle;Max_cycle;Signal;HPM_P1;HPM_P2
2023/01/14 00:01:08;;;;;;;45.20;28.30;;;;;;;-2.73;99.95;100337.61;105266;1262;68764;-71
2023/01/14 00:03:35;;;;;;;45.80;28.50;;;;;;;-2.73;100.00;100338.20;105183;1260;72879;-68
2023/01/14 00:06:02;;;;;;;56.90;34.30;;;;;;;-2.72;100.00;100339.47;105155;1262;61666;-71
2023/01/14 00:08:29;;;;;;;51.20;31.20;;;;;;;-2.69;100.00;100341.36;105511;1260;60442;-70
2023/01/14 00:10:56;;;;;;;44.90;28.60;;;;;;;-2.71;100.00;100337.28;105615;1259;71513;-68
2023/01/14 00:13:23;;;;;;;48.50;26.80;;;;;;;-2.76;100.00;100334.07;105331;1260;67144;-71
2023/01/14 00:15:56;;;;;;;44.80;30.40;;;;;;;-2.78;100.00;100336.45;105710;1259;74596;-68
2023/01/14 00:18:23;;;;;;;38.90;26.40;;;;;;;-2.76;100.00;100337.74;105666;1262;60553;-70
2023/01/14 00:20:56;;;;;;;46.30;28.50;;;;;;;-2.69;100.00;100340.92;105614;1259;61252;-73
2023/01/14 00:23:27;;;;;;;56.10;31.70;;;;;;;-2.67;100.00;100345.19;105582;1262;73314;-70
2023/01/14 00:25:53;;;;;;;51.80;30.70;;;;;;;-2.72;100.00;100350.05;105399;1260;68758;-70
2023/01/14 00:28:23;;;;;;;51.10;27.30;;;;;;;-2.74;100.00;100351.43;105380;1262;72058;-71
2023/01/14 00:30:52;;;;;;;45.20;25.80;;;;;;;-2.73;100.00;100353.23;105185;1260;62851;-70
2023/01/14 00:33:19;;;;;;;50.40;32.60;;;;;;;-2.73;100.00;100349.55;105346;1259;59750;-68
2023/01/14 00:35:52;;;;;;;53.90;32.20;;;;;;;-2.75;100.00;100352.41;105178;1259;73735;-68
2023/01/14 00:38:21;;;;;;;45.00;28.60;;;;;;;-2.74;100.00;100356.73;105276;1260;67299;-69
2023/01/14 00:40:47;;;;;;;47.20;26.00;;;;;;;-2.71;100.00;100354.83;105265;1260;72441;-69
2023/01/14 00:43:14;;;;;;;41.90;28.90;;;;;;;-2.68;100.00;100351.92;105204;1259;62034;-70
2023/01/14 00:45:42;;;;;;;39.40;24.20;;;;;;;-2.67;100.00;100350.21;105248;1260;60615;-69
2023/01/14 00:48:09;;;;;;;43.80;24.90;;;;;;;-2.61;100.00;100353.93;102977;1259;1003819;-66
2023/01/14 00:50:36;;;;;;;50.80;29.50;;;;;;;-2.64;100.00;100348.73;105269;1260;59870;-69
2023/01/14 00:53:02;;;;;;;49.60;27.20;;;;;;;-2.64;100.00;100350.29;105443;1260;59708;-72
2023/01/14 00:55:30;;;;;;;44.90;28.10;;;;;;;-2.60;100.00;100347.85;105696;1260;62681;-68
2023/01/14 00:57:57;;;;;;;46.70;27.60;;;;;;;-2.56;100.00;100347.64;105462;1260;62055;-70
2023/01/14 01:00:24;;;;;;;57.00;32.10;;;;;;;-2.54;100.00;100348.60;105270;1259;72093;-72
2023/01/14 01:02:51;;;;;;;37.40;22.00;;;;;;;-2.52;100.00;100347.77;105121;1265;69651;-67
2023/01/14 01:05:20;;;;;;;52.60;29.60;;;;;;;-2.54;100.00;100347.78;105066;1264;74220;-66
2023/01/14 01:07:48;;;;;;;45.10;25.00;;;;;;;-2.58;100.00;100347.76;105345;1260;61946;-66
2023/01/14 01:10:17;;;;;;;43.90;25.10;;;;;;;-2.64;100.00;100341.53;105251;1259;61701;-68
2023/01/14 01:12:45;;;;;;;40.80;25.00;;;;;;;-2.67;100.00;100344.59;105287;1262;74247;-68
2023/01/14 01:15:11;;;;;;;48.10;29.10;;;;;;;-2.68;100.00;100343.33;105211;1260;67758;-71
2023/01/14 01:17:39;;;;;;;53.00;28.10;;;;;;;-2.67;100.00;100354.46;105038;1260;73260;-75
2023/01/14 01:20:07;;;;;;;49.70;31.60;;;;;;;-2.61;100.00;100350.90;105649;1262;59770;-67
2023/01/14 01:22:34;;;;;;;48.10;30.50;;;;;;;-2.61;100.00;100349.69;105058;1262;61215;-68
2023/01/14 01:25:01;;;;;;;55.40;30.20;;;;;;;-2.64;100.00;100352.20;105220;1260;74650;-67
2023/01/14 01:27:29;;;;;;;48.30;30.40;;;;;;;-2.62;100.00;100354.00;106091;1264;68831;-68
2023/01/14 01:29:56;;;;;;;51.60;29.90;;;;;;;-2.62;100.00;100351.35;105196;1260;73678;-67
2023/01/14 01:32:25;;;;;;;39.90;22.80;;;;;;;-2.60;100.00;100350.60;104999;1259;61418;-66
2023/01/14 01:34:52;;;;;;;54.60;29.20;;;;;;;-2.59;100.00;100348.20;105190;1260;60410;-67
2023/01/14 01:37:19;;;;;;;53.60;29.30;;;;;;;-2.58;100.00;100346.25;105193;1260;71168;-68
2023/01/14 01:39:46;;;;;;;51.10;31.10;;;;;;;-2.60;100.00;100344.14;104974;1260;69325;-65
2023/01/14 01:42:13;;;;;;;43.90;27.30;;;;;;;-2.64;100.00;100342.02;105165;1260;72114;-68
2023/01/14 01:44:40;;;;;;;33.30;21.00;;;;;;;-2.66;100.00;100339.63;105298;1260;61032;-67
2023/01/14 01:47:08;;;;;;;51.80;30.10;;;;;;;-2.69;100.00;100345.00;105177;1260;62008;-68
2023/01/14 01:49:36;;;;;;;50.50;27.40;;;;;;;-2.70;100.00;100340.55;105312;1260;74204;-69
2023/01/14 01:52:27;;;;;;;51.30;29.40;;;;;;;-2.73;100.00;100336.77;105216;1262;68942;-68
2023/01/14 01:54:57;;;;;;;50.20;28.50;;;;;;;-2.77;100.00;100337.13;105532;1260;73332;-68
2023/01/14 01:57:23;;;;;;;44.10;27.50;;;;;;;-2.75;100.00;100337.32;105151;1260;61322;-70
2023/01/14 04:05:42;;;;;;;23.00;15.00;;;;;;;-3.69;100.00;100334.42;102211;1295;600998;-66
2023/01/14 04:08:10;;;;;;;49.60;21.60;;;;;;;-3.70;100.00;100336.13;104312;1269;62880;-67
2023/01/14 04:10:37;;;;;;;47.10;25.50;;;;;;;-3.67;100.00;100336.86;104193;1268;59311;-67
2023/01/14 04:15:49;;;;;;;40.20;21.70;;;;;;;-3.59;100.00;100343.60;104500;1273;72746;-66
2023/01/14 04:18:16;;;;;;;42.70;22.00;;;;;;;-3.57;100.00;100342.69;104968;1264;605028;-69
2023/01/14 04:20:43;;;;;;;37.50;23.60;;;;;;;-3.52;100.00;100342.95;105265;1261;59850;-67
2023/01/14 04:23:10;;;;;;;40.40;22.10;;;;;;;-3.45;100.00;100345.64;105289;1256;61094;-67
2023/01/14 04:25:36;;;;;;;34.60;23.40;;;;;;;-3.41;100.00;100342.14;105324;1260;73190;-68
2023/01/14 04:28:03;;;;;;;38.90;21.40;;;;;;;-3.32;100.00;100347.80;105313;1256;68188;-65
2023/01/14 04:30:30;;;;;;;35.10;21.20;;;;;;;-3.30;100.00;100350.72;105360;1256;75048;-69
2023/01/14 06:07:09;;;;;;;51.80;25.50;;;;;;;-3.79;100.00;100382.00;105109;1264;59569;-67
2023/01/14 06:09:37;;;;;;;32.10;15.90;;;;;;;-3.75;100.00;100382.47;105179;1262;72755;-69
2023/01/14 06:12:06;;;;;;;42.30;21.70;;;;;;;-3.71;100.00;100387.36;105080;1266;70655;-68
2023/01/14 06:14:34;;;;;;;40.50;20.90;;;;;;;-3.67;100.00;100389.59;104789;1257;577540;-65
2023/01/14 06:17:08;;;;;;;27.80;17.70;;;;;;;-3.63;100.00;100391.17;105165;1262;61726;-66
2023/01/14 06:19:35;;;;;;;45.20;24.20;;;;;;;-3.61;100.00;100395.55;105255;1257;60956;-67
2023/01/14 06:22:02;;;;;;;39.50;21.00;;;;;;;-3.61;100.00;100393.40;105134;1257;71911;-67
2023/01/14 06:24:29;;;;;;;38.10;20.80;;;;;;;-3.58;100.00;100393.16;105305;1263;68463;-67
2023/01/14 06:27:04;;;;;;;38.50;22.40;;;;;;;-3.53;100.00;100391.82;105147;1264;73790;-66
2023/01/14 06:29:31;;;;;;;34.40;18.90;;;;;;;-3.51;100.00;100390.09;105261;1263;62403;-67
2023/01/14 06:31:58;;;;;;;35.10;19.20;;;;;;;-3.49;100.00;100388.43;105218;1263;63042;-68
2023/01/14 06:34:26;;;;;;;40.30;22.10;;;;;;;-3.44;100.00;100395.02;105158;1258;72230;-68
2023/01/14 06:36:53;;;;;;;23.70;16.30;;;;;;;-3.42;100.00;100395.67;105450;1257;70206;-69
2023/01/14 06:39:20;;;;;;;41.70;22.90;;;;;;;-3.42;100.00;100400.66;105165;1258;73272;-68
2023/01/14 06:41:47;;;;;;;38.40;19.30;;;;;;;-3.40;100.00;100398.16;105622;1257;63697;-67
2023/01/14 06:44:14;;;;;;;31.50;18.70;;;;;;;-3.32;100.00;100399.29;106138;1259;62985;-66
2023/01/14 06:46:41;;;;;;;32.80;19.70;;;;;;;-3.32;100.00;100398.38;105818;1257;73859;-67
2023/01/14 06:49:08;;;;;;;34.00;19.00;;;;;;;-3.31;100.00;100401.84;105820;1258;68278;-67
2023/01/14 06:51:35;;;;;;;32.80;20.40;;;;;;;-3.30;100.00;100402.08;105762;1263;74173;-66
2023/01/14 06:54:02;;;;;;;31.00;18.10;;;;;;;-3.33;100.00;100397.64;105547;1262;61954;-66
2023/01/14 06:56:29;;;;;;;36.10;22.00;;;;;;;-3.34;100.00;100398.30;105469;1263;61812;-68
2023/01/14 06:58:57;;;;;;;28.00;17.80;;;;;;;-3.35;100.00;100394.88;105205;1263;74106;-68
2023/01/14 07:01:24;;;;;;;44.50;23.60;;;;;;;-3.34;100.00;100397.77;105316;1259;66565;-67
2023/01/14 07:03:51;;;;;;;37.70;22.50;;;;;;;-3.33;100.00;100399.21;105210;1257;74057;-68
2023/01/14 07:06:18;;;;;;;33.10;12.90;;;;;;;-3.31;100.00;100401.30;105348;1259;60597;-68
2023/01/14 07:08:45;;;;;;;35.30;21.30;;;;;;;-3.28;100.00;100395.41;105468;1254;59690;-69
2023/01/14 07:11:12;;;;;;;33.70;20.70;;;;;;;-3.21;100.00;100392.14;105853;1254;72069;-68
2023/01/14 07:13:39;;;;;;;44.30;24.20;;;;;;;-3.19;100.00;100392.05;105819;1254;69217;-66
2023/01/14 07:16:06;;;;;;;41.00;23.60;;;;;;;-3.18;100.00;100393.60;105504;1259;72004;-68
2023/01/14 07:18:33;;;;;;;51.00;25.90;;;;;;;-3.18;100.00;100394.13;105639;1254;61315;-70
2023/01/14 07:21:00;;;;;;;40.30;21.90;;;;;;;-3.17;100.00;100398.45;105419;1258;63219;-67
2023/01/14 07:23:27;;;;;;;38.00;24.10;;;;;;;-3.16;100.00;100400.36;105545;1258;75774;-68
2023/01/14 07:25:57;;;;;;;40.10;24.40;;;;;;;-3.14;100.00;100406.70;105738;1254;68218;-68
2023/01/14 07:28:28;;;;;;;40.90;24.30;;;;;;;-3.06;100.00;100409.97;105326;1257;72183;-67
2023/01/14 07:30:56;;;;;;;46.90;25.10;;;;;;;-3.01;100.00;100413.41;105356;1257;59709;-68
2023/01/14 07:33:23;;;;;;;39.30;23.70;;;;;;;-2.99;100.00;100414.82;105687;1256;62868;-71
2023/01/14 07:35:53;;;;;;;40.80;24.50;;;;;;;-2.95;100.00;100411.71;105278;1260;74880;-69
2023/01/14 07:38:21;;;;;;;42.40;23.90;;;;;;;-2.87;100.00;100413.59;105167;1263;69814;-68
2023/01/14 07:40:48;;;;;;;43.80;23.80;;;;;;;-2.86;100.00;100409.85;105111;1261;74039;-70
2023/01/14 07:43:16;;;;;;;32.80;19.80;;;;;;;-2.85;100.00;100406.08;105241;1260;61959;-68
2023/01/14 07:45:43;;;;;;;42.10;24.00;;;;;;;-2.78;100.00;100409.23;105750;1257;61600;-68
2023/01/14 07:48:10;;;;;;;39.30;19.60;;;;;;;-2.76;100.00;100413.56;105628;1257;72959;-67
2023/01/14 07:50:36;;;;;;;48.50;25.90;;;;;;;-2.77;100.00;100415.64;105357;1257;68940;-68
2023/01/14 07:53:03;;;;;;;38.40;23.90;;;;;;;-2.78;100.00;100415.14;105713;1257;74161;-69
2023/01/14 07:55:30;;;;;;;47.30;28.90;;;;;;;-2.77;100.00;100418.44;105493;1257;63438;-68
2023/01/14 07:57:59;;;;;;;42.70;26.10;;;;;;;-2.77;100.00;100416.14;105606;1260;59632;-70
2023/01/14 08:00:26;;;;;;;54.30;27.40;;;;;;;-2.78;100.00;100414.98;105672;1256;74499;-68
2023/01/14 08:02:53;;;;;;;44.40;26.70;;;;;;;-2.76;100.00;100425.90;105387;1260;67579;-68
2023/01/14 08:05:20;;;;;;;52.70;27.30;;;;;;;-2.73;100.00;100427.70;105341;1257;71386;-68
2023/01/14 08:07:47;;;;;;;46.00;26.40;;;;;;;-2.74;100.00;100431.15;105290;1258;63969;-66
2023/01/14 08:10:13;;;;;;;45.90;23.00;;;;;;;-2.76;100.00;100426.59;105375;1258;60981;-65
2023/01/14 08:12:40;;;;;;;46.30;27.20;;;;;;;-2.76;100.00;100428.87;105192;1256;72347;-66
2023/01/14 08:15:10;;;;;;;44.90;25.90;;;;;;;-2.74;100.00;100427.45;105336;1260;69113;-67
2023/01/14 08:17:38;;;;;;;47.10;25.10;;;;;;;-2.74;100.00;100432.22;105134;1257;75293;-68
2023/01/14 08:20:05;;;;;;;45.20;26.00;;;;;;;-2.73;100.00;100428.77;105864;1260;60581;-68
2023/01/14 08:22:32;;;;;;;46.20;22.20;;;;;;;-2.72;100.00;100431.23;105193;1260;60812;-67
2023/01/14 08:24:59;;;;;;;43.00;24.00;;;;;;;-2.67;100.00;100435.02;105343;1257;73514;-69
2023/01/14 08:27:27;;;;;;;41.20;23.90;;;;;;;-2.62;100.00;100441.56;105774;1260;68694;-69
2023/01/14 08:29:54;;;;;;;43.80;23.00;;;;;;;-2.61;100.00;100441.33;105598;1260;74361;-68
2023/01/14 08:32:23;;;;;;;38.30;21.70;;;;;;;-2.61;100.00;100446.03;105760;1263;60979;-70
2023/01/14 08:34:50;;;;;;;38.50;23.20;;;;;;;-2.53;100.00;100442.65;105852;1257;61798;-68
2023/01/14 08:37:17;;;;;;;36.40;24.20;;;;;;;-2.44;100.00;100441.91;105802;1258;71984;-67
2023/01/14 08:39:43;;;;;;;36.20;21.40;;;;;;;-2.43;100.00;100441.06;105347;1255;67673;-70
2023/01/14 08:42:10;;;;;;;33.90;21.40;;;;;;;-2.44;100.00;100441.51;105562;1260;73234;-69
2023/01/14 08:44:37;;;;;;;43.60;23.20;;;;;;;-2.45;100.00;100436.79;105305;1255;62148;-69
2023/01/14 08:47:04;;;;;;;51.90;24.70;;;;;;;-2.43;100.00;100439.16;105377;1255;60025;-68
2023/01/14 08:49:31;;;;;;;46.70;24.80;;;;;;;-2.38;100.00;100439.94;105372;1257;72281;-71
2023/01/14 08:51:59;;;;;;;44.80;26.10;;;;;;;-2.34;100.00;100442.34;105820;1258;68301;-72
2023/01/14 08:54:26;;;;;;;51.40;25.80;;;;;;;-2.27;100.00;100440.96;105758;1256;74999;-68
2023/01/14 08:56:56;;;;;;;45.70;25.00;;;;;;;-2.26;100.00;100442.42;105458;1260;61796;-69
2023/01/14 08:59:23;;;;;;;37.90;21.70;;;;;;;-2.30;100.00;100438.56;105567;1257;60440;-71
2023/01/14 09:01:50;;;;;;;39.90;21.70;;;;;;;-2.34;100.00;100428.64;105769;1260;74915;-66
2023/01/14 09:04:21;;;;;;;43.20;24.10;;;;;;;-2.33;100.00;100431.52;105409;1259;67618;-66
2023/01/14 09:18:02;;;;;;;44.60;24.60;;;;;;;-2.12;100.00;100418.58;105266;1255;69134;-68
2023/01/14 09:20:34;;;;;;;49.20;24.50;;;;;;;-2.04;100.00;100411.25;105354;1258;71859;-67
2023/01/14 09:23:01;;;;;;;51.90;25.30;;;;;;;-2.02;100.00;100411.92;105275;1255;59674;-68
2023/01/14 09:25:28;;;;;;;47.00;27.20;;;;;;;-2.06;100.00;100407.98;105270;1257;60798;-66
2023/01/14 09:27:55;;;;;;;50.60;26.30;;;;;;;-2.10;100.00;100406.05;105067;1256;73768;-64
2023/01/14 09:30:22;;;;;;;50.80;24.90;;;;;;;-2.08;100.00;100403.90;105129;1256;69596;-65
2023/01/14 09:32:49;;;;;;;49.70;28.40;;;;;;;-2.05;100.00;100407.48;105449;1254;73183;-69
2023/01/14 09:35:16;;;;;;;47.90;27.40;;;;;;;-2.02;100.00;100407.77;105427;1259;60616;-65
2023/01/14 09:37:43;;;;;;;56.00;30.20;;;;;;;-2.01;100.00;100407.11;105262;1260;60957;-67
2023/01/14 09:40:10;;;;;;;46.50;26.60;;;;;;;-1.98;100.00;100408.80;105373;1257;72248;-67
2023/01/14 09:42:48;;;;;;;43.00;24.90;;;;;;;-1.96;100.00;100407.84;105181;1257;69880;-65
2023/01/14 09:45:35;;;;;;;51.80;26.00;;;;;;;-1.91;100.00;100416.83;105346;1258;72474;-71
2023/01/14 09:48:10;;;;;;;47.70;26.40;;;;;;;-1.87;100.00;100413.96;105498;1254;62304;-68
2023/01/14 09:50:49;;;;;;;55.60;27.00;;;;;;;-1.87;100.00;100411.52;105919;1259;62879;-71
2023/01/14 09:53:37;;;;;;;52.10;25.60;;;;;;;-1.88;100.00;100419.34;105827;1254;73416;-71
2023/01/14 09:56:13;;;;;;;38.50;24.10;;;;;;;-1.85;100.00;100414.64;105864;1258;67817;-71
2023/01/14 09:58:57;;;;;;;45.20;25.00;;;;;;;-1.85;100.00;100418.33;105642;1257;72226;-70
2023/01/14 10:01:43;;;;;;;41.90;24.10;;;;;;;-1.80;100.00;100420.48;105793;1261;59769;-69
2023/01/14 10:04:33;;;;;;;40.90;23.30;;;;;;;-1.64;100.00;100422.96;105746;1259;59836;-69
2023/01/14 10:07:00;;;;;;;41.40;23.40;;;;;;;-1.65;100.00;100422.17;105739;1257;75645;-74
2023/01/14 10:09:30;;;;;;;45.20;27.10;;;;;;;-1.66;100.00;100417.69;104893;1254;1002937;-72
2023/01/14 17:25:56;;;;;;;87.20;33.70;;;;;;;-1.76;100.00;100443.82;103730;1289;600674;-69
2023/01/14 17:28:27;;;;;;;74.80;31.70;;;;;;;-1.77;100.00;100442.25;103281;1272;61341;-70
2023/01/14 17:30:58;;;;;;;68.30;34.10;;;;;;;-1.73;100.00;100447.77;105725;1269;60546;-71
2023/01/14 17:33:30;;;;;;;80.00;34.20;;;;;;;-1.69;100.00;100450.11;105867;1269;71090;-71
2023/01/14 17:36:12;;;;;;;56.70;30.20;;;;;;;-1.62;100.00;100451.38;105935;1269;67513;-72
2023/01/14 17:38:41;;;;;;;52.80;27.10;;;;;;;-1.55;100.00;100449.09;104695;1275;1408608;-73
2023/01/14 17:44:07;;;;;;;;;;;;;;;-1.45;100.00;100449.48;106068;1269;62773;-75
2023/01/14 17:46:36;;;;;;;63.20;30.90;;;;;;;-1.39;100.00;100444.46;106351;1267;74692;-73
2023/01/14 17:49:04;;;;;;;47.70;24.00;;;;;;;-1.34;100.00;100442.55;105579;1266;69754;-76
2023/01/14 17:51:34;;;;;;;43.60;26.30;;;;;;;-1.28;100.00;100443.71;105395;1266;74031;-76
2023/01/14 17:54:02;;;;;;;34.60;20.10;;;;;;;-1.20;100.00;100449.54;105103;1266;61129;-74
2023/01/14 17:56:29;;;;;;;47.60;23.60;;;;;;;-1.12;100.00;100452.30;108568;1265;62871;-75
2023/01/14 17:58:56;;;;;;;44.10;22.90;;;;;;;-1.09;100.00;100455.34;108581;1266;73192;-76
2023/01/14 18:01:23;;;;;;;42.60;23.40;;;;;;;-1.09;100.00;100454.09;108592;1263;68674;-74
2023/01/14 18:03:52;;;;;;;50.90;26.30;;;;;;;-1.16;100.00;100454.05;108684;1263;75070;-74
2023/01/14 18:06:21;;;;;;;48.60;23.20;;;;;;;-1.22;100.00;100457.04;108671;1261;60462;-76
2023/01/14 18:08:48;;;;;;;45.60;26.00;;;;;;;-1.24;100.00;100461.56;108670;1262;59239;-73
2023/01/14 18:11:15;;;;;;;38.50;22.30;;;;;;;-1.21;100.00;100457.95;108859;1262;74813;-79
2023/01/14 18:13:42;;;;;;;40.10;20.80;;;;;;;-1.16;100.00;100455.51;108705;1260;67880;-81
2023/01/14 18:16:09;;;;;;;42.90;22.30;;;;;;;-1.19;100.00;100451.61;108685;1263;73252;-76
2023/01/14 22:00:38;;;;;;;61.50;31.40;;;;;;;-1.77;100.00;100460.45;102520;1295;600234;-69
2023/01/14 22:03:05;;;;;;;66.40;31.60;;;;;;;-1.79;100.00;100459.23;104322;1270;59287;-69
2023/01/14 22:05:32;;;;;;;48.70;28.20;;;;;;;-1.76;100.00;100462.83;104429;1269;61578;-70
2023/01/14 22:08:01;;;;;;;52.10;27.30;;;;;;;-1.72;100.00;100458.88;104517;1273;71854;-69
2023/01/14 22:10:29;;;;;;;47.30;26.70;;;;;;;-1.69;100.00;100451.92;104508;1269;70234;-68
2023/01/14 22:12:55;;;;;;;45.90;25.90;;;;;;;-1.64;100.00;100454.04;104357;1269;73473;-68
2023/01/14 22:15:22;;;;;;;44.40;23.30;;;;;;;-1.59;100.00;100454.21;104181;1271;566437;-70
2023/01/14 22:17:49;;;;;;;47.20;25.90;;;;;;;-1.54;100.00;100453.94;104449;1270;61739;-68
2023/01/14 22:20:16;;;;;;;53.20;26.60;;;;;;;-1.52;100.00;100452.95;105059;1263;72978;-69
2023/01/14 22:22:44;;;;;;;54.30;27.60;;;;;;;-1.47;100.00;100451.72;105308;1263;68760;-71
2023/01/14 22:25:10;;;;;;;39.40;23.10;;;;;;;-1.36;100.00;100451.37;105399;1261;74817;-69
2023/01/14 22:27:37;;;;;;;39.70;21.00;;;;;;;-1.25;100.00;100447.45;105201;1261;60892;-71
2023/01/14 22:30:05;;;;;;;41.10;22.00;;;;;;;-1.23;100.00;100442.13;104853;1263;61342;-69
2023/01/14 22:32:33;;;;;;;36.00;21.20;;;;;;;-1.22;100.00;100439.92;105448;1261;75355;-69
2023/01/14 22:35:01;;;;;;;36.90;22.50;;;;;;;-1.21;100.00;100438.77;104860;1263;67729;-70
2023/01/14 22:37:28;;;;;;;32.20;20.20;;;;;;;-1.19;100.00;100438.59;105405;1263;73970;-68
2023/01/14 22:39:55;;;;;;;34.10;21.40;;;;;;;-1.15;100.00;100440.23;104941;1263;61471;-69
2023/01/14 22:42:22;;;;;;;40.00;21.40;;;;;;;-1.13;100.00;100442.88;105058;1263;59976;-70
2023/01/14 22:44:49;;;;;;;37.70;20.70;;;;;;;-1.09;100.00;100440.16;105438;1265;74575;-71
2023/01/14 22:47:16;;;;;;;37.10;21.40;;;;;;;-0.98;100.00;100436.16;105081;1264;68489;-69
2023/01/14 22:49:43;;;;;;;49.20;24.60;;;;;;;-0.96;100.00;100433.34;104896;1261;75280;-70
2023/01/14 22:52:13;;;;;;;41.20;25.00;;;;;;;-0.95;100.00;100429.34;105219;1260;61707;-71
2023/01/14 22:54:40;;;;;;;45.90;23.70;;;;;;;-0.98;100.00;100429.48;105779;1261;60594;-71
2023/01/14 22:57:07;;;;;;;37.00;18.80;;;;;;;-1.03;100.00;100427.25;106451;1263;72546;-70
2023/01/14 22:59:35;;;;;;;38.10;23.00;;;;;;;-1.04;100.00;100429.42;106313;1261;69152;-69
2023/01/14 23:02:03;;;;;;;40.30;22.20;;;;;;;-0.98;100.00;100428.05;106687;1262;75482;-71
2023/01/14 23:04:30;;;;;;;40.20;21.60;;;;;;;-0.95;100.00;100422.13;106470;1263;60933;-73
2023/01/14 23:06:57;;;;;;;45.70;23.20;;;;;;;-0.92;100.00;100421.61;106415;1263;61708;-72
2023/01/14 23:09:33;;;;;;;39.40;21.90;;;;;;;-0.95;100.00;100425.85;106385;1260;74098;-71
2023/01/14 23:12:01;;;;;;;40.40;24.10;;;;;;;-0.98;100.00;100425.78;106288;1263;68381;-72
2023/01/14 23:14:28;;;;;;;39.20;20.60;;;;;;;-0.98;100.00;100421.55;106210;1266;74430;-72
2023/01/14 23:19:40;;;;;;;43.10;23.90;;;;;;;-0.91;100.00;100417.29;105331;1263;62928;-70
2023/01/14 23:24:55;;;;;;;45.00;22.50;;;;;;;-0.79;100.00;100416.26;105448;1259;70874;-70
2023/01/14 23:27:22;;;;;;;39.10;21.60;;;;;;;-0.79;100.00;100418.00;105547;1264;72260;-69
2023/01/14 23:29:49;;;;;;;42.20;21.00;;;;;;;-0.81;100.00;100419.27;105509;1259;60311;-71
2023/01/14 23:32:16;;;;;;;33.90;20.50;;;;;;;-0.80;100.00;100419.02;105503;1259;60293;-68
2023/01/14 23:34:44;;;;;;;34.80;20.30;;;;;;;-0.77;100.00;100416.80;105514;1256;75012;-70
2023/01/14 23:37:11;;;;;;;39.90;23.60;;;;;;;-0.78;100.00;100417.64;105715;1259;69206;-69
2023/01/14 23:39:37;;;;;;;49.10;23.60;;;;;;;-0.80;100.00;100418.16;105677;1262;75331;-70
2023/01/14 23:42:04;;;;;;;49.00;25.50;;;;;;;-0.76;100.00;100414.94;105520;1264;60525;-71
2023/01/14 23:44:52;;;;;;;43.60;23.70;;;;;;;-0.68;100.00;100412.70;105656;1262;59778;-70
2023/01/14 23:47:19;;;;;;;48.90;24.30;;;;;;;-0.73;100.00;100411.59;105757;1257;75254;-71
2023/01/14 23:49:46;;;;;;;40.70;22.20;;;;;;;-0.77;100.00;100412.69;105676;1257;68526;-68
2023/01/14 23:52:13;;;;;;;38.40;23.40;;;;;;;-0.78;100.00;100413.69;105750;1257;75681;-69
2023/01/14 23:54:40;;;;;;;48.40;25.60;;;;;;;-0.81;100.00;100416.27;105462;1261;61680;-71
2023/01/14 23:57:07;;;;;;;45.30;23.10;;;;;;;-0.78;100.00;100416.23;105383;1257;59972;-69
2023/01/14 23:59:38;;;;;;;39.40;20.90;;;;;;;-0.77;100.00;100419.05;105177;1262;74086;-70
